Peal de Becerro, Spain
Current Conditions -  °F | °C
As of 11:00 AM on Thursday 23 Oct 2014 (Local Time) from LEGA Reporting Station
Clear Clear  
Wind Chill: 61°   Ceiling: Unl
Heat Index: 61°   Visibility: 6mi
Dew Point: 39°   Wind: 2mph
Humidity: 45%   Direction: 300°WNW
Pressure: 30.27"   Gusts: NA
Location:  37.91°N, 3.12°W
Report Text: LEGA 230900Z 30002KT CAVOK 16/04 Q1025
Loading
Personal Weather Stations






























Interactive Weather Map
Tropical Storm Tracking
New forecast layout! Learn more

10-Day Weather Forecast

Advertisements
Track Severe Weather on mobile